createdAt,value
2022-08-02T00:02:25.165Z,32.60798
2022-08-02T00:07:26.825Z,33.38471
2022-08-02T00:12:28.425Z,34.41178
2022-08-02T00:17:30.085Z,34.38478
2022-08-02T00:22:31.733Z,34.16939
2022-08-02T00:27:33.369Z,33.67571
2022-08-02T00:32:35.014Z,34.08076
2022-08-02T00:37:36.633Z,33.58358
2022-08-02T00:42:38.235Z,33.62806
2022-08-02T00:47:39.810Z,34.68182
2022-08-02T00:52:41.430Z,33.99975
2022-08-02T00:57:43.070Z,35.50908
2022-08-02T01:02:44.766Z,34.58651
2022-08-02T01:07:46.430Z,36.24135
2022-08-02T01:12:48.045Z,34.65513
2022-08-02T01:17:49.716Z,35.29432
2022-08-02T01:23:01.540Z,35.51988
2022-08-02T01:28:03.977Z,34.64751
2022-08-02T01:33:05.601Z,34.09378
2022-08-02T01:38:07.207Z,35.15072
2022-08-02T01:43:09.606Z,34.49724
2022-08-02T01:48:14.485Z,34.0833
2022-08-02T01:53:16.185Z,34.42926
2022-08-02T01:58:17.812Z,34.15382
2022-08-02T02:03:19.402Z,33.16202
2022-08-02T02:08:27.291Z,31.68958
2022-08-02T02:13:33.473Z,31.56314
2022-08-02T02:18:35.688Z,31.3719
2022-08-02T02:23:37.346Z,33.09531
2022-08-02T02:28:39.207Z,31.52248
2022-08-02T02:33:40.827Z,31.7277
2022-08-02T02:38:42.486Z,31.58093
2022-08-02T02:43:44.182Z,31.10569
2022-08-02T02:48:46.430Z,32.25568
2022-08-02T02:54:32.812Z,32.37259
2022-08-02T02:59:36.487Z,32.16101
2022-08-02T03:04:57.061Z,31.80235
2022-08-02T03:09:59.644Z,31.15144
2022-08-02T03:15:01.504Z,31.11872
2022-08-02T03:20:03.328Z,30.87347
2022-08-02T03:25:05.028Z,29.65298
2022-08-02T03:30:06.648Z,29.93603
2022-08-02T03:35:08.233Z,29.35787
2022-08-02T03:40:10.042Z,29.54371
2022-08-02T03:45:11.677Z,29.11104
2022-08-02T03:50:13.253Z,28.05322
2022-08-02T03:55:14.899Z,28.53925
2022-08-02T04:00:16.553Z,28.37946
2022-08-02T04:05:18.142Z,26.31626
2022-08-02T04:10:20.105Z,26.76193
2022-08-02T04:15:21.727Z,25.86805
2022-08-02T04:20:23.379Z,26.95062
2022-08-02T04:25:35.753Z,26.8944
2022-08-02T04:30:42.145Z,26.08056
2022-08-02T04:35:43.765Z,25.61551
2022-08-02T04:40:45.367Z,25.85026
2022-08-02T04:45:47.019Z,24.58822
2022-08-02T04:50:48.647Z,25.37822
2022-08-02T04:55:50.360Z,24.6454
2022-08-02T05:00:52.287Z,25.79149
2022-08-02T05:05:53.958Z,23.35988
2022-08-02T05:10:55.597Z,23.24553
2022-08-02T05:15:57.403Z,24.53168
2022-08-02T05:20:58.984Z,23.35607
2022-08-02T05:26:00.666Z,24.58187
2022-08-02T05:31:02.393Z,22.89802
2022-08-02T05:36:04.396Z,23.66387
2022-08-02T05:41:06.257Z,24.20196
2022-08-02T05:46:07.891Z,24.51389
2022-08-02T05:51:09.483Z,23.75186
2022-08-02T05:56:11.259Z,24.24262
2022-08-02T06:01:13.024Z,22.39583
2022-08-02T06:06:14.638Z,23.54094
2022-08-02T06:11:16.455Z,21.31808
2022-08-02T06:16:31.637Z,21.26027
2022-08-02T06:22:31.810Z,21.7993
2022-08-02T06:27:38.051Z,22.23828
2022-08-02T06:32:39.664Z,22.93011
2022-08-02T06:37:41.263Z,23.16897
2022-08-02T06:42:42.898Z,21.42671
2022-08-02T06:47:44.495Z,21.9235
2022-08-02T06:52:46.082Z,22.13822
2022-08-02T06:57:47.657Z,21.67097
2022-08-02T07:02:49.435Z,21.47277
2022-08-02T07:07:51.059Z,21.93874
2022-08-02T07:12:52.664Z,21.53947
2022-08-02T07:17:54.277Z,21.59633
2022-08-02T07:22:56.089Z,20.88926
2022-08-02T07:27:57.691Z,20.31815
2022-08-02T07:33:02.612Z,20.94199
2022-08-02T07:38:04.234Z,20.72822
2022-08-02T07:43:06.165Z,19.46213
2022-08-02T07:48:07.809Z,21.13416
2022-08-02T07:53:09.420Z,21.05317
2022-08-02T07:58:12.444Z,21.09795
2022-08-02T08:03:15.001Z,20.82987
2022-08-02T08:08:17.744Z,20.14759
2022-08-02T08:13:19.543Z,19.73784
2022-08-02T08:18:21.187Z,19.06128
2022-08-02T08:23:22.792Z,20.04054
2022-08-02T08:28:24.482Z,19.60697
2022-08-02T08:33:26.060Z,19.79914
2022-08-02T08:38:28.615Z,19.34524
2022-08-02T08:43:30.259Z,19.99512
2022-08-02T08:48:32.140Z,20.33022
2022-08-02T08:53:36.669Z,20.72378
2022-08-02T08:58:38.719Z,20.45029
2022-08-02T09:03:40.364Z,20.3388
2022-08-02T09:08:41.961Z,20.21683
2022-08-02T09:13:43.651Z,19.96812
2022-08-02T09:18:47.222Z,19.6597
2022-08-02T09:23:49.276Z,19.07939
2022-08-02T09:28:50.920Z,19.01046
2022-08-02T09:33:52.620Z,16.01272
2022-08-02T09:38:54.270Z,18.23386
2022-08-02T09:44:04.380Z,18.49145
2022-08-02T09:49:07.761Z,19.36748
2022-08-02T09:54:09.719Z,18.69474
2022-08-02T09:59:11.375Z,18.50416
2022-08-02T10:04:20.568Z,18.28722
2022-08-02T10:09:23.642Z,18.89421
2022-08-02T10:14:25.303Z,18.91708
2022-08-02T10:20:00.150Z,18.10871
2022-08-02T10:25:05.413Z,18.17224
2022-08-02T10:30:07.041Z,18.21861
2022-08-02T10:35:19.738Z,18.91867
2022-08-02T10:40:27.164Z,18.29993
2022-08-02T10:45:28.852Z,18.4562
2022-08-02T10:50:30.484Z,16.96685
2022-08-02T10:55:32.107Z,17.56113
2022-08-02T11:00:33.954Z,17.34101
2022-08-02T11:05:42.924Z,17.71994
2022-08-02T11:10:45.561Z,17.33371
2022-08-02T11:15:47.153Z,17.59924
2022-08-02T11:20:48.764Z,17.68976
2022-08-02T11:26:03.523Z,16.70704
2022-08-02T11:31:05.584Z,16.8849
2022-08-02T11:36:07.364Z,16.82551
2022-08-02T11:41:09.950Z,16.84933
2022-08-02T11:46:12.181Z,17.39533
2022-08-02T11:51:13.862Z,16.86585
2022-08-02T11:56:24.131Z,17.04181
2022-08-02T12:01:27.217Z,17.94641
2022-08-02T12:06:28.853Z,17.33085
2022-08-02T12:11:39.169Z,17.42455
2022-08-02T12:16:41.114Z,16.59269
2022-08-02T12:21:42.703Z,17.32926
2022-08-02T12:26:44.348Z,16.87665
2022-08-02T12:31:56.102Z,16.755
2022-08-02T12:36:59.714Z,17.53095
2022-08-02T12:42:01.357Z,17.15774
2022-08-02T12:47:04.002Z,16.21726
2022-08-02T12:52:06.956Z,16.44722
2022-08-02T12:57:08.735Z,16.4631
2022-08-02T13:02:11.160Z,16.53806
2022-08-02T13:07:13.113Z,17.1984
2022-08-02T13:12:15.064Z,16.75563
2022-08-02T13:17:16.988Z,16.4793
2022-08-02T13:22:19.049Z,16.87665
2022-08-02T13:27:21.251Z,15.9457
2022-08-02T13:32:22.961Z,17.03673
2022-08-02T13:37:24.546Z,17.25843
2022-08-02T13:42:26.112Z,17.56081
2022-08-02T13:48:04.865Z,17.97404
2022-08-02T13:53:07.284Z,17.59067
2022-08-02T13:58:08.929Z,16.75944
2022-08-02T14:03:12.284Z,18.1265
2022-08-02T14:08:16.658Z,17.91655
2022-08-02T14:13:18.990Z,17.57288
2022-08-02T14:18:20.597Z,18.57658
2022-08-02T14:23:49.842Z,19.57712
2022-08-02T14:28:52.794Z,18.68838
2022-08-02T14:33:54.429Z,17.72026
2022-08-02T14:38:56.009Z,19.44562
2022-08-02T14:43:57.649Z,20.28544
2022-08-02T14:48:59.356Z,20.53669
2022-08-02T14:54:03.264Z,18.86816
2022-08-02T14:59:05.177Z,20.19809
2022-08-02T15:04:06.840Z,20.11836
2022-08-02T15:09:08.468Z,19.66415
2022-08-02T15:14:10.152Z,20.53161
2022-08-02T15:19:11.777Z,21.25328
2022-08-02T15:24:14.724Z,22.66392
2022-08-02T15:29:16.419Z,22.07565
2022-08-02T15:34:18.702Z,21.25868
2022-08-02T15:39:20.624Z,21.33142
2022-08-02T15:44:22.271Z,22.45301
2022-08-02T15:49:24.428Z,23.32494
2022-08-02T15:54:26.116Z,23.87606
2022-08-02T15:59:27.741Z,22.13441
2022-08-02T16:04:29.541Z,24.49642
2022-08-02T16:09:31.176Z,23.53681
2022-08-02T16:14:32.781Z,24.80836
2022-08-02T16:19:48.666Z,25.3004
2022-08-02T16:24:51.755Z,24.9513
2022-08-02T16:29:53.340Z,25.7197
2022-08-02T16:35:07.903Z,25.54309
2022-08-02T16:40:10.605Z,26.19746
2022-08-02T16:45:14.056Z,26.90075
2022-08-02T16:50:15.980Z,26.42871
2022-08-02T16:55:30.435Z,26.19205
2022-08-02T17:00:32.436Z,27.19681
2022-08-02T17:05:38.136Z,26.82673
2022-08-02T17:10:58.529Z,28.68791
2022-08-02T17:16:20.685Z,28.2416
2022-08-02T17:21:27.829Z,30.33343
2022-08-02T17:26:30.049Z,29.46651
2022-08-02T17:31:42.952Z,28.97032
2022-08-02T17:36:49.680Z,29.90267
2022-08-02T17:41:51.735Z,30.95575
2022-08-02T17:46:53.463Z,30.9459
2022-08-02T17:52:47.751Z,30.80613
2022-08-02T17:57:57.669Z,30.11265
2022-08-02T18:03:00.706Z,31.59745
2022-08-02T18:08:02.384Z,30.89254
2022-08-02T18:13:04.946Z,30.40999
2022-08-02T18:18:06.530Z,31.47007
2022-08-02T18:23:13.454Z,30.41507
2022-08-02T18:28:15.533Z,30.26227
2022-08-02T18:33:59.320Z,32.07937
2022-08-02T18:39:08.143Z,31.27438
2022-08-02T18:44:10.374Z,32.50855
2022-08-02T18:49:17.634Z,33.53244
2022-08-02T18:54:30.604Z,32.95584
2022-08-02T18:59:36.812Z,32.68296
2022-08-02T19:04:39.346Z,33.10897
2022-08-02T19:09:45.054Z,33.13851
2022-08-02T19:14:53.084Z,33.10674
2022-08-02T19:19:55.204Z,32.61815
2022-08-02T19:25:00.185Z,31.53805
2022-08-02T19:30:03.373Z,31.88304
2022-08-02T19:35:19.344Z,31.4653
2022-08-02T19:40:32.197Z,31.68418
2022-08-02T19:45:50.089Z,31.32616
2022-08-02T19:50:52.781Z,31.31472
2022-08-02T19:56:00.158Z,31.19369
2022-08-02T20:01:03.946Z,31.31758
2022-08-02T20:06:05.730Z,30.62601
2022-08-02T20:11:07.365Z,32.57082
2022-08-02T20:16:20.977Z,33.66999
2022-08-02T20:21:35.706Z,33.42379
2022-08-02T20:26:38.926Z,31.18861
2022-08-02T20:31:40.503Z,32.66612
2022-08-02T20:36:42.128Z,32.2344
2022-08-02T20:41:45.772Z,32.13528
2022-08-02T20:46:48.372Z,32.10574
2022-08-02T20:51:50.551Z,32.12607
2022-08-02T20:56:52.156Z,34.38383
2022-08-02T21:01:56.884Z,34.74059
2022-08-02T21:06:59.371Z,34.20307
2022-08-02T21:12:00.994Z,35.52973
2022-08-02T21:17:02.754Z,32.68868
2022-08-02T21:22:05.734Z,33.98895
2022-08-02T22:59:02.779Z,34.64338
2022-08-02T23:04:16.080Z,35.82581
2022-08-02T23:09:17.858Z,35.34769
2022-08-02T23:14:19.767Z,35.80898
2022-08-02T23:19:21.369Z,34.83907
2022-08-02T23:24:22.971Z,36.27757
2022-08-02T23:29:24.633Z,36.07202
2022-08-02T23:34:27.599Z,33.96576
2022-08-02T23:39:29.193Z,32.87928
2022-08-02T23:44:30.831Z,33.42919
2022-08-02T23:49:32.512Z,33.04861
2022-08-02T23:54:34.107Z,35.70318
2022-08-02T23:59:35.698Z,32.8526
